createdAt,value
2023-04-13T00:01:23.274Z,5.57
2023-04-13T00:03:50.849Z,6.63
2023-04-13T00:06:17.777Z,7.57
2023-04-13T00:08:45.097Z,6.37
2023-04-13T00:11:12.639Z,6.60
2023-04-13T00:13:43.129Z,5.63
2023-04-13T00:16:11.017Z,5.80
2023-04-13T00:18:37.999Z,5.57
2023-04-13T00:21:05.053Z,5.10
2023-04-13T00:23:32.141Z,4.43
2023-04-13T00:26:01.502Z,4.70
2023-04-13T00:28:29.701Z,4.77
2023-04-13T00:30:56.705Z,4.30
2023-04-13T00:33:23.844Z,4.40
2023-04-13T00:35:50.774Z,4.53
2023-04-13T00:38:18.163Z,4.30
2023-04-13T00:40:45.004Z,5.03
2023-04-13T00:43:11.761Z,6.37
2023-04-13T00:45:39.559Z,4.47
2023-04-13T00:48:10.566Z,3.60
2023-04-13T00:50:37.888Z,3.90
2023-04-13T00:53:09.693Z,3.70
2023-04-13T00:55:42.098Z,3.70
2023-04-13T00:58:09.329Z,3.40
2023-04-13T01:00:39.364Z,3.50
2023-04-13T01:03:06.448Z,2.80
2023-04-13T01:05:50.346Z,2.90
2023-04-13T01:08:22.202Z,3.27
2023-04-13T01:10:54.534Z,2.90
2023-04-13T01:13:30.341Z,3.10
2023-04-13T01:16:21.223Z,4.00
2023-04-13T01:18:52.429Z,3.47
2023-04-13T01:21:24.329Z,2.67
2023-04-13T01:24:17.594Z,2.67
2023-04-13T01:26:58.449Z,2.47
2023-04-13T01:29:27.166Z,2.73
2023-04-13T01:31:54.383Z,2.47
2023-04-13T01:34:23.255Z,2.53
2023-04-13T01:36:50.881Z,2.27
2023-04-13T01:39:21.724Z,2.07
2023-04-13T01:41:48.393Z,2.33
2023-04-13T01:44:15.247Z,2.10
2023-04-13T01:46:46.444Z,2.40
2023-04-13T01:49:19.436Z,2.70
2023-04-13T01:51:48.227Z,2.00
2023-04-13T01:54:25.773Z,2.10
2023-04-13T01:56:54.072Z,2.13
2023-04-13T01:59:22.548Z,2.10
2023-04-13T02:01:49.728Z,2.17
2023-04-13T02:04:16.578Z,1.90
2023-04-13T02:06:43.414Z,2.53
2023-04-13T02:09:11.013Z,2.10
2023-04-13T02:11:38.367Z,2.10
2023-04-13T02:14:05.132Z,2.03
2023-04-13T02:16:32.219Z,1.87
2023-04-13T02:19:00.052Z,2.07
2023-04-13T02:21:26.953Z,1.60
2023-04-13T02:23:53.973Z,2.00
2023-04-13T02:26:20.861Z,2.00
2023-04-13T02:28:49.434Z,1.40
2023-04-13T02:31:16.732Z,1.80
2023-04-13T02:33:44.762Z,1.80
2023-04-13T02:36:12.213Z,1.57
2023-04-13T02:38:39.416Z,1.80
2023-04-13T02:41:06.647Z,1.60
2023-04-13T02:43:34.256Z,1.80
2023-04-13T02:46:01.040Z,1.90
2023-04-13T02:48:28.159Z,2.00
2023-04-13T02:50:55.077Z,2.00
2023-04-13T02:53:22.186Z,1.67
2023-04-13T02:55:53.580Z,1.87
2023-04-13T02:58:21.332Z,1.80
2023-04-13T03:00:48.809Z,2.17
2023-04-13T03:03:17.092Z,1.80
2023-04-13T03:05:44.549Z,1.80
2023-04-13T03:08:11.342Z,2.40
2023-04-13T03:10:38.014Z,2.73
2023-04-13T03:13:04.757Z,2.07
2023-04-13T03:15:31.646Z,2.03
2023-04-13T03:18:00.122Z,2.20
2023-04-13T03:20:29.129Z,1.77
2023-04-13T03:22:57.140Z,2.33
2023-04-13T03:25:24.277Z,2.17
2023-04-13T03:27:51.710Z,2.10
2023-04-13T03:30:18.784Z,1.90
2023-04-13T03:32:45.639Z,2.13
2023-04-13T03:35:12.428Z,1.90
2023-04-13T03:37:43.563Z,2.13
2023-04-13T03:40:11.044Z,2.10
2023-04-13T03:42:38.539Z,2.00
2023-04-13T03:45:07.031Z,2.03
2023-04-13T03:47:33.995Z,2.70
2023-04-13T03:50:00.787Z,2.20
2023-04-13T03:52:27.713Z,1.83
2023-04-13T03:54:54.624Z,2.40
2023-04-13T03:57:22.776Z,1.93
2023-04-13T03:59:49.560Z,2.10
2023-04-13T04:02:16.581Z,1.70
2023-04-13T04:04:43.423Z,1.70
2023-04-13T04:07:11.061Z,1.70
2023-04-13T04:09:37.833Z,1.90
2023-04-13T04:12:05.152Z,1.87
2023-04-13T04:14:31.908Z,2.10
2023-04-13T04:16:58.593Z,2.20
2023-04-13T04:19:25.285Z,2.00
2023-04-13T04:21:52.999Z,1.80
2023-04-13T04:24:23.477Z,1.53
2023-04-13T04:26:50.768Z,1.73
2023-04-13T04:29:21.934Z,1.80
2023-04-13T04:31:53.750Z,2.00
2023-04-13T04:34:20.860Z,1.60
2023-04-13T04:36:52.031Z,1.40
2023-04-13T04:39:23.527Z,1.73
2023-04-13T04:41:54.333Z,1.50
2023-04-13T04:44:25.076Z,1.87
2023-04-13T04:46:52.571Z,1.50
2023-04-13T04:49:21.613Z,1.60
2023-04-13T04:51:49.225Z,1.87
2023-04-13T04:54:17.132Z,1.40
2023-04-13T04:56:44.577Z,1.50
2023-04-13T04:59:11.607Z,2.00
2023-04-13T05:01:38.729Z,1.80
2023-04-13T05:04:06.220Z,1.30
2023-04-13T05:06:35.794Z,1.20
2023-04-13T05:09:06.795Z,1.80
2023-04-13T05:11:33.882Z,2.20
2023-04-13T05:14:00.823Z,1.30
2023-04-13T05:16:30.530Z,1.57
2023-04-13T05:18:57.923Z,2.10
2023-04-13T05:21:27.130Z,1.50
2023-04-13T05:23:53.974Z,1.83
2023-04-13T05:26:20.789Z,1.90
2023-04-13T05:28:47.595Z,1.23
2023-04-13T05:31:15.710Z,1.83
2023-04-13T05:33:42.524Z,1.53
2023-04-13T05:36:09.824Z,1.60
2023-04-13T05:38:36.558Z,1.40
2023-04-13T05:41:03.495Z,1.40
2023-04-13T05:43:30.625Z,1.27
2023-04-13T05:45:57.289Z,1.20
2023-04-13T05:48:24.580Z,1.43
2023-04-13T05:50:52.204Z,1.50
2023-04-13T05:53:18.942Z,1.10
2023-04-13T05:55:48.030Z,1.53
2023-04-13T05:58:15.103Z,1.50
2023-04-13T06:00:43.101Z,1.50
2023-04-13T06:03:11.052Z,1.70
2023-04-13T06:05:38.884Z,1.40
2023-04-13T06:08:05.707Z,1.50
2023-04-13T06:10:32.497Z,1.50
2023-04-13T06:12:59.384Z,1.50
2023-04-13T06:15:26.180Z,1.40
2023-04-13T06:17:55.637Z,1.40
2023-04-13T06:20:22.605Z,1.90
2023-04-13T06:22:49.819Z,1.33
2023-04-13T06:25:16.778Z,1.53
2023-04-13T06:27:44.223Z,1.53
2023-04-13T06:30:12.075Z,1.40
2023-04-13T06:32:39.064Z,1.30
2023-04-13T06:35:06.373Z,1.60
2023-04-13T06:37:35.461Z,1.37
2023-04-13T06:40:15.788Z,1.40
2023-04-13T06:42:42.934Z,1.60
2023-04-13T06:45:11.247Z,1.40
2023-04-13T06:47:42.184Z,1.40
2023-04-13T06:50:10.983Z,1.67
2023-04-13T06:52:37.934Z,1.70
2023-04-13T06:55:05.053Z,1.63
2023-04-13T06:57:32.641Z,1.90
2023-04-13T06:59:59.402Z,1.53
2023-04-13T07:02:27.218Z,1.60
2023-04-13T07:04:54.358Z,1.70
2023-04-13T07:07:21.354Z,1.80
2023-04-13T07:09:48.077Z,2.00
2023-04-13T07:12:14.955Z,2.10
2023-04-13T07:14:42.003Z,1.97
2023-04-13T07:17:10.672Z,1.90
2023-04-13T07:19:47.801Z,1.93
2023-04-13T07:22:14.782Z,2.10
2023-04-13T07:24:41.669Z,2.03
2023-04-13T07:27:08.529Z,2.10
2023-04-13T07:29:35.324Z,2.10
2023-04-13T07:32:03.536Z,2.70
2023-04-13T07:34:30.858Z,2.57
2023-04-13T07:36:57.550Z,2.20
2023-04-13T07:39:24.471Z,2.20
2023-04-13T07:41:51.227Z,1.93
2023-04-13T07:44:18.070Z,2.27
2023-04-13T07:46:44.861Z,2.73
2023-04-13T07:49:11.659Z,2.80
2023-04-13T07:51:38.424Z,2.50
2023-04-13T07:54:05.748Z,2.47
2023-04-13T07:56:32.586Z,3.00
2023-04-13T07:58:59.484Z,2.70
2023-04-13T08:01:26.396Z,2.70
2023-04-13T08:03:53.459Z,2.10
2023-04-13T08:06:23.418Z,3.03
2023-04-13T08:08:50.469Z,3.40
2023-04-13T08:11:17.333Z,3.00
2023-04-13T08:13:44.064Z,3.50
2023-04-13T08:16:11.475Z,3.90
2023-04-13T08:18:38.456Z,3.60
2023-04-13T08:21:11.031Z,3.70
2023-04-13T08:23:43.969Z,3.13
2023-04-13T08:26:18.926Z,3.33
2023-04-13T08:28:49.913Z,3.27
2023-04-13T08:31:17.214Z,3.50
2023-04-13T08:33:44.039Z,3.30
2023-04-13T08:36:11.562Z,4.20
2023-04-13T08:38:38.326Z,3.47
2023-04-13T08:41:05.693Z,3.43
2023-04-13T08:43:36.005Z,3.73
2023-04-13T08:46:06.535Z,3.87
2023-04-13T08:48:50.061Z,3.53
2023-04-13T08:51:22.167Z,3.17
2023-04-13T08:53:49.902Z,3.80
2023-04-13T08:56:17.299Z,3.00
2023-04-13T08:58:46.698Z,3.97
2023-04-13T09:01:15.475Z,3.50
2023-04-13T09:03:53.960Z,4.10
2023-04-13T09:06:33.170Z,4.13
2023-04-13T09:09:03.449Z,3.97
2023-04-13T09:11:30.611Z,3.60
2023-04-13T09:13:57.901Z,3.97
2023-04-13T09:16:25.014Z,4.00
2023-04-13T09:18:53.736Z,3.73
2023-04-13T09:21:20.547Z,3.60
2023-04-13T09:23:59.860Z,3.10
2023-04-13T09:26:27.172Z,3.90
2023-04-13T09:28:58.139Z,2.60
2023-04-13T09:31:25.584Z,2.57
2023-04-13T09:33:53.301Z,2.83
2023-04-13T09:36:21.718Z,2.93
2023-04-13T09:38:53.964Z,2.27
2023-04-13T09:41:33.967Z,2.23
2023-04-13T09:44:14.934Z,2.60
2023-04-13T09:46:42.225Z,2.57
2023-04-13T09:49:09.662Z,2.37
2023-04-13T09:51:41.135Z,2.40
2023-04-13T09:54:08.231Z,2.20
2023-04-13T09:56:46.892Z,2.20
2023-04-13T09:59:14.323Z,2.17
2023-04-13T10:01:41.691Z,2.40
2023-04-13T10:04:09.894Z,2.27
2023-04-13T10:06:41.041Z,1.90
2023-04-13T10:09:08.744Z,2.43
2023-04-13T10:11:45.239Z,2.20
2023-04-13T10:14:21.951Z,1.80
2023-04-13T10:17:30.554Z,2.03
2023-04-13T10:20:01.785Z,2.37
2023-04-13T10:22:30.368Z,2.00
2023-04-13T10:24:57.303Z,2.60
2023-04-13T10:27:27.786Z,2.17
2023-04-13T10:29:55.170Z,2.20
2023-04-13T10:32:28.604Z,2.47
2023-04-13T10:34:55.951Z,2.20
2023-04-13T10:37:31.456Z,2.23
2023-04-13T10:40:14.469Z,2.90
2023-04-13T10:42:52.329Z,3.13
2023-04-13T10:45:26.121Z,2.90
2023-04-13T10:47:58.640Z,3.40
2023-04-13T10:50:29.134Z,2.93
2023-04-13T10:53:05.536Z,2.80
2023-04-13T10:55:33.539Z,3.33
2023-04-13T10:58:02.155Z,3.60
2023-04-13T11:00:44.698Z,3.30
2023-04-13T11:03:17.207Z,3.47
2023-04-13T11:05:56.574Z,3.20
2023-04-13T11:08:24.316Z,3.17
2023-04-13T11:10:55.866Z,3.07
2023-04-13T11:13:29.057Z,3.60
2023-04-13T11:16:06.672Z,3.60
2023-04-13T11:18:33.954Z,3.60
2023-04-13T11:21:04.672Z,3.80
2023-04-13T11:23:34.790Z,3.60
2023-04-13T11:26:02.961Z,3.60
2023-04-13T11:28:41.009Z,4.30
2023-04-13T11:31:08.262Z,3.30
2023-04-13T11:33:37.917Z,4.57
2023-04-13T11:36:08.048Z,4.40
2023-04-13T11:38:34.958Z,5.57
2023-04-13T11:41:14.938Z,3.47
2023-04-13T11:43:46.201Z,3.40
2023-04-13T11:46:15.348Z,3.87
2023-04-13T11:48:43.429Z,4.00
2023-04-13T11:51:11.339Z,3.13
2023-04-13T11:53:39.471Z,3.30
2023-04-13T11:56:07.272Z,3.20
2023-04-13T11:58:34.536Z,3.37
2023-04-13T12:01:14.408Z,3.23
2023-04-13T12:03:57.603Z,3.10
2023-04-13T12:06:34.160Z,3.73
2023-04-13T12:09:11.485Z,4.33
2023-04-13T12:11:44.736Z,3.67
2023-04-13T12:19:24.627Z,3.80
2023-04-13T12:21:56.745Z,3.80
2023-04-13T12:24:37.891Z,4.13
2023-04-13T12:29:41.544Z,3.87
2023-04-13T12:32:14.283Z,4.30
2023-04-13T12:34:42.180Z,3.60
2023-04-13T12:37:10.177Z,4.37
2023-04-13T12:39:37.213Z,5.10
2023-04-13T12:42:04.071Z,4.83
2023-04-13T12:44:34.550Z,4.97
2023-04-13T12:47:01.904Z,5.00
2023-04-13T12:49:29.086Z,4.20
2023-04-13T12:51:55.957Z,3.93
2023-04-13T12:54:22.743Z,3.87
2023-04-13T12:56:49.408Z,3.60
2023-04-13T12:59:16.786Z,4.23
2023-04-13T13:01:43.604Z,4.10
2023-04-13T13:04:10.558Z,4.13
2023-04-13T13:06:38.056Z,4.60
2023-04-13T13:09:05.774Z,9.27
2023-04-13T13:11:32.489Z,5.00
2023-04-13T13:13:59.201Z,4.77
2023-04-13T13:16:25.984Z,5.60
2023-04-13T13:18:52.749Z,5.07
2023-04-13T13:21:19.986Z,5.40
2023-04-13T13:23:47.128Z,5.27
2023-04-13T13:26:24.102Z,5.10
2023-04-13T13:28:52.932Z,4.43
2023-04-13T13:31:20.015Z,5.40
2023-04-13T13:33:47.146Z,6.70
2023-04-13T13:36:14.457Z,5.17
2023-04-13T13:38:44.875Z,5.10
2023-04-13T13:41:11.664Z,5.40
2023-04-13T13:43:39.033Z,6.17
2023-04-13T13:46:06.662Z,6.00
2023-04-13T13:48:33.477Z,6.53
2023-04-13T13:51:01.002Z,5.73
2023-04-13T13:53:27.886Z,5.50
2023-04-13T13:55:55.473Z,5.20
2023-04-13T13:58:22.402Z,5.90
2023-04-13T14:00:50.452Z,5.20
2023-04-13T14:03:17.442Z,5.03
2023-04-13T14:05:44.400Z,5.67
2023-04-13T14:08:11.226Z,4.80
2023-04-13T14:10:38.095Z,4.53
2023-04-13T14:13:04.964Z,4.80
2023-04-13T14:15:31.781Z,4.07
2023-04-13T14:18:10.014Z,5.97
2023-04-13T14:20:39.023Z,4.80
2023-04-13T14:23:06.324Z,4.73
2023-04-13T14:25:33.117Z,4.23
2023-04-13T14:28:00.146Z,4.33
2023-04-13T14:30:28.116Z,4.63
2023-04-13T14:32:56.273Z,4.83
2023-04-13T14:35:24.026Z,4.20
2023-04-13T14:37:50.769Z,4.60
2023-04-13T14:40:21.675Z,4.37
2023-04-13T14:42:50.910Z,4.40
2023-04-13T14:45:17.875Z,3.70
2023-04-13T14:47:44.849Z,4.80
2023-04-13T14:50:12.393Z,4.70
2023-04-13T14:52:39.743Z,4.93
2023-04-13T14:55:06.897Z,4.23
2023-04-13T14:57:33.721Z,4.03
2023-04-13T15:00:00.559Z,3.80
2023-04-13T15:02:28.485Z,3.87
2023-04-13T15:04:55.907Z,3.20
2023-04-13T15:07:29.925Z,3.43
2023-04-13T15:09:59.013Z,3.60
2023-04-13T15:12:25.960Z,3.30
2023-04-13T15:14:52.875Z,3.93
2023-04-13T15:17:21.019Z,4.07
2023-04-13T15:19:47.913Z,3.40
2023-04-13T15:22:14.576Z,3.33
2023-04-13T15:24:41.314Z,4.03
2023-04-13T15:27:08.061Z,3.80
2023-04-13T15:29:34.838Z,4.50
2023-04-13T15:32:01.666Z,4.20
2023-04-13T15:34:28.553Z,4.40
2023-04-13T15:36:56.998Z,4.70
2023-04-13T15:39:23.874Z,4.03
2023-04-13T15:41:52.659Z,4.23
2023-04-13T15:44:19.486Z,4.43
2023-04-13T15:46:48.028Z,4.00
2023-04-13T15:49:14.930Z,4.00
2023-04-13T15:51:41.710Z,3.97
2023-04-13T15:54:08.422Z,4.17
2023-04-13T15:56:35.537Z,3.93
2023-04-13T15:59:02.471Z,3.93
2023-04-13T16:01:47.336Z,3.90
2023-04-13T16:04:14.614Z,3.70
2023-04-13T16:06:42.506Z,3.80
2023-04-13T16:09:12.538Z,3.20
2023-04-13T16:11:39.287Z,3.30
2023-04-13T16:14:09.528Z,3.80
2023-04-13T16:16:46.594Z,2.90
2023-04-13T16:19:18.090Z,2.80
2023-04-13T16:21:51.058Z,3.23
2023-04-13T16:24:20.097Z,2.90
2023-04-13T16:26:46.887Z,3.00
2023-04-13T16:29:13.877Z,2.57
2023-04-13T16:31:44.730Z,2.50
2023-04-13T16:34:25.051Z,2.53
2023-04-13T16:36:53.100Z,3.07
2023-04-13T16:39:21.016Z,3.00
2023-04-13T16:41:47.731Z,2.93
2023-04-13T16:44:14.455Z,3.20
2023-04-13T16:46:41.403Z,3.03
2023-04-13T16:49:08.194Z,3.00
2023-04-13T16:51:34.918Z,3.10
2023-04-13T16:54:03.968Z,4.50
2023-04-13T16:56:30.780Z,2.90
2023-04-13T16:58:57.794Z,3.50
2023-04-13T17:01:28.990Z,3.07
2023-04-13T17:03:56.106Z,4.10
2023-04-13T17:06:23.080Z,4.10
2023-04-13T17:08:49.871Z,3.10
2023-04-13T17:11:16.584Z,3.27
2023-04-13T17:13:43.414Z,4.73
2023-04-13T17:16:10.384Z,4.70
2023-04-13T17:18:37.240Z,4.23
2023-04-13T17:21:04.089Z,3.67
2023-04-13T17:23:31.380Z,4.07
2023-04-13T17:25:58.210Z,3.70
2023-04-13T17:28:25.128Z,3.70
2023-04-13T17:30:52.000Z,4.07
2023-04-13T17:33:18.784Z,4.03
2023-04-13T17:35:45.591Z,4.17
2023-04-13T17:38:12.368Z,4.47
2023-04-13T17:40:39.088Z,4.17
2023-04-13T17:43:08.243Z,4.40
2023-04-13T17:45:35.234Z,4.50
2023-04-13T17:48:02.526Z,4.53
2023-04-13T17:50:31.765Z,4.83
2023-04-13T17:53:00.352Z,4.73
2023-04-13T17:55:27.334Z,4.53
2023-04-13T17:57:54.077Z,4.33
2023-04-13T18:00:20.966Z,4.70
2023-04-13T18:02:51.855Z,5.20
2023-04-13T18:05:18.772Z,5.40
2023-04-13T18:07:45.618Z,5.03
2023-04-13T18:10:12.378Z,5.13
2023-04-13T18:12:40.566Z,5.30
2023-04-13T18:15:10.728Z,5.50
2023-04-13T18:17:38.434Z,7.80
2023-04-13T18:20:05.983Z,7.40
2023-04-13T18:22:32.885Z,6.67
2023-04-13T18:25:00.393Z,6.30
2023-04-13T18:27:27.717Z,6.43
2023-04-13T18:29:55.689Z,5.80
2023-04-13T18:32:23.542Z,7.77
2023-04-13T18:34:50.366Z,7.30
2023-04-13T18:37:17.244Z,6.60
2023-04-13T18:39:44.928Z,7.77
2023-04-13T18:42:11.797Z,7.90
2023-04-13T18:44:38.631Z,6.00
2023-04-13T18:47:05.611Z,6.20
2023-04-13T18:49:32.596Z,5.40
2023-04-13T18:51:59.427Z,5.23
2023-04-13T18:54:26.266Z,5.57
2023-04-13T18:56:52.999Z,7.13
2023-04-13T18:59:19.841Z,5.33
2023-04-13T19:01:47.715Z,5.97
2023-04-13T19:04:14.817Z,5.60
2023-04-13T19:06:41.824Z,6.20
2023-04-13T19:09:08.721Z,6.33
2023-04-13T19:11:50.254Z,6.40
2023-04-13T19:14:17.013Z,7.50
2023-04-13T19:16:45.627Z,8.10
2023-04-13T19:19:14.662Z,6.70
2023-04-13T19:21:41.448Z,6.80
2023-04-13T19:24:08.683Z,7.33
2023-04-13T19:26:35.476Z,6.77
2023-04-13T19:29:03.992Z,7.53
2023-04-13T19:31:34.592Z,7.93
2023-04-13T19:34:01.799Z,8.00
2023-04-13T19:36:28.834Z,7.80
2023-04-13T19:38:55.600Z,8.40
2023-04-13T19:41:22.346Z,7.00
2023-04-13T19:43:51.029Z,8.60
2023-04-13T19:46:17.811Z,8.10
2023-04-13T19:51:27.325Z,8.07
2023-04-13T19:53:55.090Z,7.20
2023-04-13T19:56:25.429Z,6.93
2023-04-13T19:58:52.229Z,7.87
2023-04-13T20:01:21.160Z,7.03
2023-04-13T20:06:16.065Z,6.77
2023-04-13T20:08:44.527Z,7.50
2023-04-13T20:11:12.050Z,7.07
2023-04-13T20:13:39.811Z,8.27
2023-04-13T20:16:06.942Z,6.90
2023-04-13T20:18:33.996Z,6.77
2023-04-13T20:21:01.139Z,5.80
2023-04-13T20:23:29.833Z,6.63
2023-04-13T20:25:56.628Z,6.03
2023-04-13T20:28:23.770Z,6.20
2023-04-13T20:30:50.911Z,8.53
2023-04-13T20:33:17.675Z,7.80
2023-04-13T20:35:44.448Z,7.70
2023-04-13T20:38:13.866Z,7.33
2023-04-13T20:40:41.807Z,6.93
2023-04-13T20:43:09.653Z,7.30
2023-04-13T20:45:36.808Z,6.70
2023-04-13T20:48:48.519Z,7.30
2023-04-13T20:50:53.614Z,7.10
2023-04-13T20:53:20.464Z,7.40
2023-04-13T20:55:48.879Z,9.43
2023-04-13T20:58:16.101Z,7.57
2023-04-13T21:00:43.682Z,7.50
2023-04-13T21:03:10.994Z,7.77
2023-04-13T21:05:37.941Z,7.40
2023-04-13T21:08:04.776Z,7.87
2023-04-13T21:10:31.624Z,8.20
2023-04-13T21:12:58.806Z,8.57
2023-04-13T21:15:26.256Z,8.47
2023-04-13T21:17:53.073Z,8.37
2023-04-13T21:20:19.971Z,9.10
2023-04-13T21:22:46.658Z,11.27
2023-04-13T21:25:13.510Z,11.80
2023-04-13T21:27:40.338Z,10.00
2023-04-13T21:30:07.704Z,9.20
2023-04-13T21:32:34.934Z,9.40
2023-04-13T21:35:02.181Z,8.63
2023-04-13T21:37:31.868Z,9.67
2023-04-13T21:39:58.621Z,9.87
2023-04-13T21:42:25.552Z,10.80
2023-04-13T21:44:52.760Z,10.50
2023-04-13T21:47:19.918Z,12.47
2023-04-13T21:49:47.110Z,11.67
2023-04-13T21:52:13.884Z,10.70
2023-04-13T21:54:41.062Z,9.90
2023-04-13T21:57:09.782Z,9.37
2023-04-13T21:59:36.912Z,9.60
2023-04-13T22:02:03.832Z,9.67
2023-04-13T22:04:30.920Z,9.43
2023-04-13T22:06:57.811Z,8.30
2023-04-13T22:09:24.575Z,8.97
2023-04-13T22:11:51.763Z,7.97
2023-04-13T22:14:19.311Z,8.20
2023-04-13T22:16:47.738Z,8.30
2023-04-13T22:19:16.056Z,9.70
2023-04-13T22:21:42.762Z,10.20
2023-04-13T22:24:09.562Z,8.63
2023-04-13T22:26:36.369Z,10.27
2023-04-13T22:29:03.307Z,8.40
2023-04-13T22:31:30.203Z,7.93
2023-04-13T22:33:57.109Z,8.07
2023-04-13T22:36:24.047Z,9.23
2023-04-13T22:38:51.180Z,7.40
2023-04-13T22:41:18.329Z,8.20
2023-04-13T22:43:45.210Z,8.67
2023-04-13T22:46:12.203Z,7.83
2023-04-13T22:48:39.428Z,7.90
2023-04-13T22:51:06.567Z,8.10
2023-04-13T22:53:33.289Z,7.53
2023-04-13T22:56:00.871Z,7.37
2023-04-13T22:58:27.983Z,7.03
2023-04-13T23:00:54.944Z,7.80
2023-04-13T23:03:22.137Z,7.10
2023-04-13T23:05:49.318Z,7.67
2023-04-13T23:08:16.096Z,6.13
2023-04-13T23:10:42.841Z,6.40
2023-04-13T23:13:09.556Z,7.10
2023-04-13T23:15:36.321Z,6.50
2023-04-13T23:18:03.509Z,6.70
2023-04-13T23:20:30.521Z,7.27
2023-04-13T23:22:57.330Z,7.10
2023-04-13T23:25:24.270Z,7.60
2023-04-13T23:27:50.998Z,8.40
2023-04-13T23:30:18.235Z,7.07
2023-04-13T23:32:45.005Z,7.00
2023-04-13T23:35:11.869Z,7.87
2023-04-13T23:37:40.567Z,7.00
2023-04-13T23:40:08.060Z,7.93
2023-04-13T23:42:35.012Z,9.60
2023-04-13T23:45:01.791Z,7.10
2023-04-13T23:47:28.806Z,6.83
2023-04-13T23:49:55.802Z,7.30
2023-04-13T23:52:22.595Z,8.53
2023-04-13T23:54:49.312Z,7.30
2023-04-13T23:57:16.706Z,7.47
2023-04-13T23:59:43.458Z,7.07
